createdAt,value
2018-11-12T00:01:44.669Z,11.50
2018-11-12T00:04:13.315Z,11.50
2018-11-12T00:06:42.091Z,11.60
2018-11-12T00:09:10.727Z,11.50
2018-11-12T00:11:39.314Z,11.60
2018-11-12T00:14:11.559Z,11.50
2018-11-12T00:16:40.372Z,11.50
2018-11-12T00:19:09.374Z,11.50
2018-11-12T00:21:38.057Z,11.40
2018-11-12T00:24:06.972Z,11.40
2018-11-12T00:26:35.572Z,11.50
2018-11-12T00:29:04.222Z,11.40
2018-11-12T00:31:32.816Z,11.40
2018-11-12T00:34:01.439Z,11.40
2018-11-12T00:36:30.026Z,11.40
2018-11-12T00:38:58.634Z,11.50
2018-11-12T00:41:27.239Z,11.40
2018-11-12T00:43:55.808Z,11.40
2018-11-12T00:46:24.666Z,11.30
2018-11-12T00:48:53.261Z,11.30
2018-11-12T00:51:22.052Z,11.20
2018-11-12T00:53:51.383Z,11.20
2018-11-12T00:56:20.000Z,11.20
2018-11-12T00:58:48.596Z,11.20
2018-11-12T01:01:17.214Z,11.20
2018-11-12T01:03:45.818Z,11.10
2018-11-12T01:06:14.447Z,11.10
2018-11-12T01:08:43.040Z,11.10
2018-11-12T01:11:11.736Z,11.20
2018-11-12T01:13:40.483Z,11.20
2018-11-12T01:16:09.627Z,11.20
2018-11-12T01:18:38.230Z,11.30
2018-11-12T01:21:07.204Z,11.30
2018-11-12T01:23:35.914Z,11.30
2018-11-12T01:26:04.679Z,11.30
2018-11-12T01:28:33.275Z,11.30
2018-11-12T01:31:03.871Z,11.20
2018-11-12T01:33:33.330Z,11.20
2018-11-12T01:36:02.094Z,11.30
2018-11-12T01:38:30.794Z,11.30
2018-11-12T01:40:59.448Z,11.30
2018-11-12T01:43:28.060Z,11.20
2018-11-12T01:45:56.677Z,11.20
2018-11-12T01:48:25.275Z,11.20
2018-11-12T01:50:53.894Z,11.10
2018-11-12T01:53:22.543Z,11.10
2018-11-12T01:55:51.195Z,11.00
2018-11-12T01:58:19.805Z,11.00
2018-11-12T02:00:48.675Z,11.00
2018-11-12T02:03:17.342Z,11.00
2018-11-12T02:05:45.948Z,11.10
2018-11-12T02:08:14.581Z,11.10
2018-11-12T02:10:44.034Z,11.10
2018-11-12T02:13:12.711Z,11.20
2018-11-12T02:15:41.296Z,11.10
2018-11-12T02:18:09.942Z,11.20
2018-11-12T02:20:38.532Z,11.30
2018-11-12T02:23:07.143Z,11.30
2018-11-12T02:25:35.736Z,11.30
2018-11-12T02:28:04.367Z,11.30
2018-11-12T02:30:38.364Z,11.30
2018-11-12T02:33:07.114Z,11.40
2018-11-12T02:35:35.669Z,11.30
2018-11-12T02:38:04.299Z,11.30
2018-11-12T02:40:32.899Z,11.30
2018-11-12T02:43:01.558Z,11.20
2018-11-12T02:45:30.163Z,11.20
2018-11-12T02:47:58.807Z,11.20
2018-11-12T02:50:27.443Z,11.20
2018-11-12T02:52:56.091Z,11.20
2018-11-12T02:58:15.561Z,11.20
2018-11-12T03:00:44.223Z,11.10
2018-11-12T03:03:12.862Z,11.10
2018-11-12T03:05:41.508Z,11.20
2018-11-12T03:08:10.132Z,11.20
2018-11-12T03:10:38.765Z,11.20
2018-11-12T03:13:07.381Z,11.20
2018-11-12T03:15:35.998Z,11.20
2018-11-12T03:18:05.061Z,11.20
2018-11-12T03:20:33.707Z,11.20
2018-11-12T03:23:02.324Z,11.10
2018-11-12T03:25:31.011Z,11.20
2018-11-12T03:27:59.666Z,11.20
2018-11-12T03:30:28.279Z,11.20
2018-11-12T03:32:56.894Z,11.30
2018-11-12T03:35:25.548Z,11.20
2018-11-12T03:37:54.206Z,11.20
2018-11-12T03:40:24.028Z,11.20
2018-11-12T03:42:53.126Z,11.20
2018-11-12T03:45:23.047Z,11.10
2018-11-12T03:47:51.707Z,11.20
2018-11-12T03:50:21.721Z,11.10
2018-11-12T03:52:50.373Z,11.10
2018-11-12T03:55:20.215Z,11.10
2018-11-12T03:57:48.887Z,11.10
2018-11-12T04:00:21.893Z,11.10
2018-11-12T04:02:50.437Z,11.00
2018-11-12T04:05:19.058Z,11.10
2018-11-12T04:07:47.701Z,11.10
2018-11-12T04:10:18.385Z,11.10
2018-11-12T04:12:47.024Z,11.10
2018-11-12T04:15:20.959Z,11.10
2018-11-12T04:17:49.643Z,11.10
2018-11-12T04:20:19.583Z,11.10
2018-11-12T04:22:53.477Z,11.20
2018-11-12T04:25:22.082Z,11.20
2018-11-12T04:27:50.693Z,11.30
2018-11-12T04:30:19.315Z,11.30
2018-11-12T04:32:47.991Z,11.30
2018-11-12T04:35:16.924Z,11.30
2018-11-12T04:37:45.546Z,11.20
2018-11-12T04:40:15.973Z,11.20
2018-11-12T04:42:45.076Z,11.20
2018-11-12T04:45:15.208Z,11.20
2018-11-12T04:47:44.580Z,11.20
2018-11-12T04:50:15.844Z,11.10
2018-11-12T04:52:44.466Z,11.20
2018-11-12T04:55:14.352Z,11.20
2018-11-12T04:57:43.491Z,11.20
2018-11-12T05:00:14.375Z,11.10
2018-11-12T05:02:43.107Z,11.10
2018-11-12T05:05:13.368Z,11.10
2018-11-12T05:07:42.250Z,11.10
2018-11-12T05:10:12.664Z,11.10
2018-11-12T05:12:41.980Z,11.10
2018-11-12T05:15:13.316Z,11.10
2018-11-12T05:17:41.987Z,11.10
2018-11-12T05:20:13.376Z,11.00
2018-11-12T05:22:42.262Z,11.00
2018-11-12T05:25:11.073Z,10.90
2018-11-12T05:27:39.756Z,10.90
2018-11-12T05:30:17.763Z,10.90
2018-11-12T05:32:46.391Z,10.90
2018-11-12T05:35:16.354Z,10.80
2018-11-12T05:37:45.399Z,10.80
2018-11-12T05:40:16.733Z,10.80
2018-11-12T05:42:45.467Z,10.70
2018-11-12T05:45:15.307Z,10.70
2018-11-12T05:47:43.957Z,10.80
2018-11-12T05:50:17.603Z,10.70
2018-11-12T05:52:47.403Z,10.80
2018-11-12T05:55:17.420Z,10.80
2018-11-12T05:57:46.599Z,10.80
2018-11-12T06:00:19.067Z,10.80
2018-11-12T06:02:47.692Z,10.80
2018-11-12T06:05:17.388Z,10.90
2018-11-12T06:07:46.045Z,10.90
2018-11-12T06:10:17.621Z,10.90
2018-11-12T06:12:46.483Z,11.00
2018-11-12T06:15:15.611Z,11.00
2018-11-12T06:17:45.126Z,11.00
2018-11-12T06:20:17.812Z,11.00
2018-11-12T06:22:46.567Z,11.10
2018-11-12T06:25:16.724Z,11.10
2018-11-12T06:27:45.436Z,11.10
2018-11-12T06:30:16.748Z,11.10
2018-11-12T06:32:45.343Z,11.10
2018-11-12T06:35:14.731Z,11.10
2018-11-12T06:37:44.146Z,11.10
2018-11-12T06:40:15.059Z,11.20
2018-11-12T06:42:43.907Z,11.20
2018-11-12T06:45:14.991Z,11.20
2018-11-12T06:47:44.426Z,11.20
2018-11-12T06:50:14.303Z,11.20
2018-11-12T06:52:42.994Z,11.30
2018-11-12T06:55:12.795Z,11.20
2018-11-12T06:57:41.850Z,11.20
2018-11-12T07:00:12.944Z,11.30
2018-11-12T07:02:41.592Z,11.30
2018-11-12T07:05:10.813Z,11.40
2018-11-12T07:07:39.558Z,11.50
2018-11-12T07:10:10.559Z,11.50
2018-11-12T07:12:39.670Z,11.50
2018-11-12T07:15:09.787Z,11.50
2018-11-12T07:17:38.835Z,11.50
2018-11-12T07:20:09.549Z,11.60
2018-11-12T07:22:38.242Z,11.60
2018-11-12T07:25:07.645Z,11.70
2018-11-12T07:27:36.348Z,11.80
2018-11-12T07:30:06.431Z,11.80
2018-11-12T07:32:35.059Z,11.80
2018-11-12T07:35:04.248Z,11.80
2018-11-12T07:37:32.873Z,11.90
2018-11-12T07:40:01.541Z,11.90
2018-11-12T07:42:30.205Z,12.00
2018-11-12T07:44:58.820Z,12.10
2018-11-12T07:47:27.469Z,12.40
2018-11-12T07:49:56.088Z,12.70
2018-11-12T07:52:24.702Z,12.80
2018-11-12T07:54:53.389Z,13.10
2018-11-12T07:57:21.996Z,13.30
2018-11-12T07:59:50.637Z,13.80
2018-11-12T08:02:19.276Z,14.90
2018-11-12T08:04:47.867Z,16.80
2018-11-12T08:07:16.528Z,18.50
2018-11-12T08:09:45.269Z,19.80
2018-11-12T08:12:13.820Z,20.90
2018-11-12T08:14:42.552Z,20.20
2018-11-12T08:17:11.100Z,18.70
2018-11-12T08:19:39.720Z,19.20
2018-11-12T08:22:08.362Z,19.70
2018-11-12T08:24:36.986Z,19.40
2018-11-12T08:27:05.668Z,19.30
2018-11-12T08:29:34.257Z,20.40
2018-11-12T08:32:03.014Z,20.60
2018-11-12T08:34:31.613Z,19.70
2018-11-12T08:37:00.272Z,18.60
2018-11-12T08:39:29.018Z,17.70
2018-11-12T08:41:57.615Z,17.00
2018-11-12T08:44:26.285Z,16.70
2018-11-12T08:46:54.948Z,16.30
2018-11-12T08:49:23.680Z,15.90
2018-11-12T08:51:52.269Z,15.60
2018-11-12T08:54:20.917Z,15.10
2018-11-12T08:56:49.519Z,14.80
2018-11-12T08:59:18.247Z,14.50
2018-11-12T09:01:46.746Z,14.50
2018-11-12T09:04:15.506Z,14.40
2018-11-12T09:06:44.092Z,14.60
2018-11-12T09:09:13.464Z,14.80
2018-11-12T09:11:42.307Z,15.10
2018-11-12T09:14:11.080Z,15.20
2018-11-12T09:16:40.131Z,15.40
2018-11-12T09:19:08.761Z,15.70
2018-11-12T09:21:37.411Z,16.00
2018-11-12T09:24:06.348Z,16.60
2018-11-12T09:26:35.009Z,17.80
2018-11-12T09:29:03.623Z,19.50
2018-11-12T09:31:32.431Z,21.00
2018-11-12T09:34:00.907Z,22.40
2018-11-12T09:36:29.537Z,23.00
2018-11-12T09:41:26.787Z,24.00
2018-11-12T09:43:55.407Z,23.80
2018-11-12T09:46:24.004Z,24.00
2018-11-12T09:48:52.687Z,24.40
2018-11-12T09:51:21.939Z,24.40
2018-11-12T09:53:50.738Z,23.90
2018-11-12T09:56:19.193Z,23.10
2018-11-12T09:58:47.838Z,23.20
2018-11-12T10:01:16.898Z,23.60
2018-11-12T10:03:46.619Z,22.90
2018-11-12T10:06:15.234Z,22.20
2018-11-12T10:08:44.500Z,21.20
2018-11-12T10:11:13.275Z,21.40
2018-11-12T10:13:41.505Z,21.90
2018-11-12T10:16:11.500Z,22.20
2018-11-12T10:18:37.345Z,22.00
2018-11-12T10:21:06.444Z,22.40
2018-11-12T10:23:35.114Z,22.20
2018-11-12T10:26:03.763Z,22.40
2018-11-12T10:28:32.409Z,23.40
2018-11-12T10:31:01.133Z,23.70
2018-11-12T10:33:29.878Z,24.10
2018-11-12T10:35:58.611Z,23.40
2018-11-12T10:38:27.436Z,22.50
2018-11-12T10:40:56.173Z,21.60
2018-11-12T10:43:24.770Z,21.80
2018-11-12T10:45:53.457Z,22.50
2018-11-12T10:48:22.175Z,22.90
2018-11-12T10:50:56.375Z,22.90
2018-11-12T10:53:19.586Z,22.90
2018-11-12T10:55:48.329Z,22.70
2018-11-12T10:58:16.977Z,22.00
2018-11-12T11:00:50.878Z,21.20
2018-11-12T11:03:24.646Z,20.40
2018-11-12T11:05:54.063Z,19.80
2018-11-12T11:08:22.834Z,19.40
2018-11-12T11:10:51.408Z,19.20
2018-11-12T11:13:20.074Z,19.00
2018-11-12T11:15:48.684Z,19.00
2018-11-12T11:18:17.298Z,19.10
2018-11-12T11:20:46.003Z,19.20
2018-11-12T11:23:14.696Z,19.40
2018-11-12T11:25:43.347Z,19.30
2018-11-12T11:28:12.031Z,19.30
2018-11-12T11:30:40.852Z,19.40
2018-11-12T11:33:09.591Z,19.40
2018-11-12T11:35:38.339Z,19.60
2018-11-12T11:38:07.000Z,19.60
2018-11-12T11:40:35.659Z,19.60
2018-11-12T11:43:04.347Z,19.60
2018-11-12T11:45:33.012Z,19.60
2018-11-12T11:48:01.665Z,19.50
2018-11-12T11:50:30.496Z,19.50
2018-11-12T11:53:00.437Z,19.40
2018-11-12T11:55:29.116Z,19.40
2018-11-12T11:57:57.719Z,19.30
2018-11-12T12:00:28.623Z,19.20
2018-11-12T12:02:58.415Z,19.20
2018-11-12T12:05:27.648Z,19.20
2018-11-12T12:07:56.940Z,19.20
2018-11-12T12:10:25.570Z,19.20
2018-11-12T12:12:54.225Z,19.20
2018-11-12T12:15:24.036Z,19.30
2018-11-12T12:17:52.763Z,19.40
2018-11-12T12:20:23.556Z,19.50
2018-11-12T12:22:52.608Z,19.60
2018-11-12T12:25:21.340Z,19.70
2018-11-12T12:27:50.418Z,19.90
2018-11-12T12:30:23.558Z,20.10
2018-11-12T12:32:53.233Z,20.20
2018-11-12T12:35:21.857Z,20.00
2018-11-12T12:37:50.548Z,19.80
2018-11-12T12:40:20.338Z,19.60
2018-11-12T12:42:49.008Z,19.60
2018-11-12T12:45:18.994Z,19.70
2018-11-12T12:47:48.093Z,19.90
2018-11-12T12:50:17.607Z,20.00
2018-11-12T12:52:46.321Z,20.10
2018-11-12T12:55:15.835Z,20.20
2018-11-12T12:57:45.097Z,20.20
2018-11-12T13:00:17.887Z,20.20
2018-11-12T13:02:46.545Z,20.10
2018-11-12T13:05:15.204Z,19.90
2018-11-12T13:07:43.917Z,19.80
2018-11-12T13:10:14.082Z,19.70
2018-11-12T13:12:42.848Z,19.60
2018-11-12T13:15:13.010Z,19.50
2018-11-12T13:17:42.603Z,19.40
2018-11-12T13:20:12.638Z,19.40
2018-11-12T13:22:42.320Z,19.50
2018-11-12T13:25:11.206Z,19.60
2018-11-12T13:27:39.898Z,19.60
2018-11-12T13:30:11.764Z,19.60
2018-11-12T13:32:40.724Z,19.60
2018-11-12T13:35:11.397Z,19.60
2018-11-12T13:37:40.069Z,19.60
2018-11-12T13:40:12.672Z,19.60
2018-11-12T13:42:42.424Z,19.50
2018-11-12T13:45:11.243Z,19.40
2018-11-12T13:47:40.046Z,19.30
2018-11-12T13:50:11.892Z,19.20
2018-11-12T13:52:40.635Z,19.10
2018-11-12T13:55:11.195Z,19.00
2018-11-12T13:57:39.864Z,19.00
2018-11-12T14:00:12.589Z,18.90
2018-11-12T14:02:46.233Z,18.50
2018-11-12T14:05:16.491Z,17.80
2018-11-12T14:07:45.607Z,17.20
2018-11-12T14:10:15.515Z,16.70
2018-11-12T14:12:44.736Z,16.30
2018-11-12T14:15:15.572Z,16.00
2018-11-12T14:17:44.460Z,15.80
2018-11-12T14:20:13.212Z,15.60
2018-11-12T14:22:41.880Z,15.40
2018-11-12T14:25:12.340Z,15.20
2018-11-12T14:27:41.112Z,15.00
2018-11-12T14:30:11.672Z,14.80
2018-11-12T14:32:40.338Z,14.70
2018-11-12T14:35:09.833Z,14.60
2018-11-12T14:37:38.671Z,14.40
2018-11-12T14:40:09.046Z,14.30
2018-11-12T14:42:37.691Z,14.20
2018-11-12T14:45:07.773Z,14.30
2018-11-12T14:47:36.387Z,14.30
2018-11-12T14:50:05.195Z,14.30
2018-11-12T14:52:33.875Z,14.30
2018-11-12T14:55:02.565Z,14.20
2018-11-12T14:57:31.429Z,14.10
2018-11-12T15:00:00.470Z,14.10
2018-11-12T15:02:29.943Z,14.10
2018-11-12T15:04:58.587Z,14.00
2018-11-12T15:07:27.247Z,13.90
2018-11-12T15:09:55.860Z,13.90
2018-11-12T15:12:24.550Z,13.80
2018-11-12T15:14:53.188Z,13.70
2018-11-12T15:17:21.824Z,13.60
2018-11-12T15:19:50.487Z,13.50
2018-11-12T15:22:19.156Z,13.50
2018-11-12T15:24:47.842Z,13.50
2018-11-12T15:27:16.470Z,13.50
2018-11-12T15:29:45.114Z,13.50
2018-11-12T15:32:13.773Z,13.40
2018-11-12T15:34:42.771Z,13.40
2018-11-12T15:37:12.012Z,13.40
2018-11-12T15:39:40.484Z,13.40
2018-11-12T15:42:09.155Z,13.30
2018-11-12T15:44:37.792Z,13.30
2018-11-12T15:47:06.436Z,13.30
2018-11-12T15:49:35.071Z,13.20
2018-11-12T15:52:03.777Z,13.20
2018-11-12T15:54:32.384Z,13.20
2018-11-12T15:57:01.095Z,13.10
2018-11-12T15:59:29.707Z,13.10
2018-11-12T16:01:58.311Z,13.00
2018-11-12T16:04:26.969Z,12.90
2018-11-12T16:06:55.595Z,12.90
2018-11-12T16:09:24.228Z,12.80
2018-11-12T16:11:52.875Z,12.80
2018-11-12T16:14:21.572Z,12.80
2018-11-12T16:16:50.227Z,12.70
2018-11-12T16:19:18.901Z,12.70
2018-11-12T16:21:47.522Z,12.70
2018-11-12T16:24:16.161Z,12.70
2018-11-12T16:26:44.879Z,12.70
2018-11-12T16:29:13.476Z,12.70
2018-11-12T16:31:42.092Z,12.70
2018-11-12T16:34:10.743Z,12.70
2018-11-12T16:36:39.394Z,12.60
2018-11-12T16:39:10.304Z,12.60
2018-11-12T16:41:39.599Z,12.60
2018-11-12T16:44:08.528Z,12.60
2018-11-12T16:46:37.165Z,12.60
2018-11-12T16:49:06.132Z,12.50
2018-11-12T16:51:34.805Z,12.50
2018-11-12T16:54:03.423Z,12.50
2018-11-12T16:56:32.066Z,12.50
2018-11-12T16:59:00.706Z,12.40
2018-11-12T17:01:29.405Z,12.40
2018-11-12T17:03:57.997Z,12.30
2018-11-12T17:06:26.602Z,12.30
2018-11-12T17:08:55.315Z,12.30
2018-11-12T17:11:24.104Z,12.30
2018-11-12T17:13:52.733Z,12.20
2018-11-12T17:16:21.397Z,12.20
2018-11-12T17:18:50.010Z,12.20
2018-11-12T17:21:18.686Z,12.20
2018-11-12T17:23:47.359Z,12.20
2018-11-12T17:26:15.992Z,12.10
2018-11-12T17:28:44.624Z,12.10
2018-11-12T17:31:13.287Z,12.10
2018-11-12T17:33:41.940Z,12.10
2018-11-12T17:36:10.587Z,12.10
2018-11-12T17:38:39.260Z,12.10
2018-11-12T17:41:07.895Z,12.10
2018-11-12T17:43:36.617Z,12.10
2018-11-12T17:46:05.348Z,12.10
2018-11-12T17:48:33.955Z,12.00
2018-11-12T17:51:02.851Z,12.00
2018-11-12T17:53:31.484Z,12.00
2018-11-12T17:56:00.136Z,11.90
2018-11-12T17:58:28.768Z,11.90
2018-11-12T18:00:57.628Z,11.90
2018-11-12T18:03:26.256Z,12.00
2018-11-12T18:08:39.217Z,12.00
2018-11-12T18:11:07.902Z,12.00
2018-11-12T18:16:18.663Z,12.00
2018-11-12T18:18:47.325Z,12.00
2018-11-12T18:21:15.955Z,12.00
2018-11-12T18:23:44.636Z,12.00
2018-11-12T18:26:13.293Z,12.00
2018-11-12T18:28:41.970Z,12.00
2018-11-12T18:31:10.813Z,12.00
2018-11-12T18:33:39.359Z,12.00
2018-11-12T18:36:08.092Z,12.00
2018-11-12T18:38:36.725Z,12.00
2018-11-12T18:41:05.679Z,12.00
2018-11-12T18:43:34.385Z,12.00
2018-11-12T18:46:03.014Z,12.00
2018-11-12T18:48:31.689Z,12.00
2018-11-12T18:51:00.342Z,11.90
2018-11-12T18:53:28.974Z,11.90
2018-11-12T18:55:57.637Z,11.90
2018-11-12T18:58:26.312Z,12.00
2018-11-12T19:00:54.982Z,11.90
2018-11-12T19:03:23.681Z,12.00
2018-11-12T19:05:52.416Z,11.90
2018-11-12T19:08:21.093Z,11.90
2018-11-12T19:10:49.943Z,11.90
2018-11-12T19:13:18.628Z,11.90
2018-11-12T19:15:47.376Z,11.90
2018-11-12T19:18:16.061Z,11.90
2018-11-12T19:20:44.816Z,11.90
2018-11-12T19:23:13.543Z,11.90
2018-11-12T19:25:42.316Z,11.90
2018-11-12T19:28:10.955Z,11.90
2018-11-12T19:30:39.731Z,11.80
2018-11-12T19:33:08.460Z,11.80
2018-11-12T19:35:37.159Z,11.80
2018-11-12T19:38:06.091Z,11.70
2018-11-12T19:40:34.986Z,11.70
2018-11-12T19:43:03.595Z,11.70
2018-11-12T19:45:32.311Z,11.70
2018-11-12T19:48:01.010Z,11.70
2018-11-12T19:50:30.708Z,11.70
2018-11-12T19:53:01.165Z,11.60
2018-11-12T19:55:29.860Z,11.60
2018-11-12T19:57:58.550Z,11.60
2018-11-12T20:00:28.245Z,11.60
2018-11-12T20:02:58.309Z,11.50
2018-11-12T20:05:26.968Z,11.50
2018-11-12T20:07:55.680Z,11.40
2018-11-12T20:10:24.711Z,11.40
2018-11-12T20:12:53.424Z,11.40
2018-11-12T20:15:23.445Z,11.40
2018-11-12T20:17:53.103Z,11.30
2018-11-12T20:20:23.296Z,11.30
2018-11-12T20:22:52.416Z,11.30
2018-11-12T20:25:21.464Z,11.30
2018-11-12T20:27:57.468Z,11.20
2018-11-12T20:30:31.223Z,11.20
2018-11-12T20:32:59.924Z,11.20
2018-11-12T20:35:28.600Z,11.20
2018-11-12T20:37:57.276Z,11.10
2018-11-12T20:40:26.031Z,11.20
2018-11-12T20:42:54.729Z,11.20
2018-11-12T20:45:23.908Z,11.10
2018-11-12T20:47:53.935Z,11.20
2018-11-12T20:50:22.652Z,11.20
2018-11-12T20:52:51.358Z,11.20
2018-11-12T20:58:02.024Z,11.20
2018-11-12T21:00:31.367Z,11.20
2018-11-12T21:03:00.287Z,11.20
2018-11-12T21:05:30.090Z,11.20
2018-11-12T21:07:59.094Z,11.30
2018-11-12T21:13:09.318Z,11.20
2018-11-12T21:15:38.025Z,11.10
2018-11-12T21:18:06.741Z,11.10
2018-11-12T21:20:35.434Z,11.10
2018-11-12T21:23:04.165Z,11.00
2018-11-12T21:25:32.881Z,11.00
2018-11-12T21:28:01.515Z,11.00
2018-11-12T21:30:30.393Z,11.00
2018-11-12T21:35:39.047Z,10.90
2018-11-12T21:38:07.670Z,11.00
2018-11-12T21:40:36.358Z,10.90
2018-11-12T21:43:05.095Z,10.90
2018-11-12T21:45:33.724Z,10.90
2018-11-12T21:48:02.355Z,10.90
2018-11-12T21:50:31.027Z,11.00
2018-11-12T21:52:59.662Z,11.00
2018-11-12T21:55:28.299Z,11.00
2018-11-12T21:57:56.969Z,11.00
2018-11-12T22:00:27.792Z,11.10
2018-11-12T22:02:59.844Z,11.10
2018-11-12T22:05:29.376Z,11.10
2018-11-12T22:07:57.983Z,11.10
2018-11-12T22:10:26.672Z,11.10
2018-11-12T22:12:55.729Z,11.00
2018-11-12T22:15:24.412Z,11.00
2018-11-12T22:17:53.123Z,11.00
2018-11-12T22:20:23.173Z,11.00
2018-11-12T22:22:51.972Z,11.00
2018-11-12T22:25:21.744Z,11.00
2018-11-12T22:27:51.081Z,11.00
2018-11-12T22:30:21.026Z,10.90
2018-11-12T22:32:51.057Z,11.00
2018-11-12T22:35:19.738Z,10.90
2018-11-12T22:37:48.711Z,10.90
2018-11-12T22:40:18.039Z,10.90
2018-11-12T22:42:48.139Z,10.90
2018-11-12T22:45:18.076Z,10.90
2018-11-12T22:47:47.393Z,10.90
2018-11-12T22:50:16.012Z,10.90
2018-11-12T22:52:45.372Z,10.90
2018-11-12T22:55:15.156Z,10.90
2018-11-12T22:57:43.860Z,10.90
2018-11-12T23:00:20.636Z,10.80
2018-11-12T23:02:49.964Z,10.80
2018-11-12T23:05:19.235Z,10.80
2018-11-12T23:07:48.389Z,10.80
2018-11-12T23:10:23.594Z,10.80
2018-11-12T23:12:52.381Z,10.80
2018-11-12T23:15:21.246Z,10.80
2018-11-12T23:17:49.914Z,10.80
2018-11-12T23:20:22.981Z,10.80
2018-11-12T23:22:51.976Z,10.80
2018-11-12T23:25:20.722Z,10.80
2018-11-12T23:27:49.992Z,10.80
2018-11-12T23:30:20.028Z,10.80
2018-11-12T23:32:48.651Z,10.80
2018-11-12T23:35:19.428Z,10.80
2018-11-12T23:37:48.487Z,10.70
2018-11-12T23:40:17.162Z,10.70
2018-11-12T23:42:46.785Z,10.70
2018-11-12T23:45:15.412Z,10.70
2018-11-12T23:47:44.062Z,10.60
2018-11-12T23:50:17.687Z,10.60
2018-11-12T23:52:47.108Z,10.60
2018-11-12T23:55:16.012Z,10.60
2018-11-12T23:57:45.178Z,10.60
